Mekhanik Kraskovsky — UFHZ — position and weather

sailwx.info

Track history (hours):
 
Tides and Currents Weather Stations Pressure Air Temp Water Temp Dewpoint Dewpoint Depression Visibility Wind Speed Wind Dir Waves Ship Positions

Mekhanik Kraskovsky

Last reported at 2018-Jun-25 19:31 UTC. Time now 2018-Jun-25 19:33 UTC.
Position N 68°60' E 016°47'.

Length 85 m; beam 15 m.

Type: Cargo ship. MMSI: 273116000.

Date/timePositionNaut miles runAvg speedWind from/ knotsBaromVisibWave heightAir tempDewpointWater temp
2018-Jun-25 19:31N 68°60' E 016°47'5 9.4
2018-Jun-25 19:00N 69°04' E 016°44'5 9.4
2018-Jun-25 18:30N 69°09' E 016°42'5 9.5
2018-Jun-25 18:00N 69°14' E 016°40'510.3
2018-Jun-25 17:30N 69°16' E 016°28'510.5
2018-Jun-25 17:00N 69°19' E 016°15'2 4.0
2018-Jun-25 16:30N 69°21' E 016°17'2 4.1
2018-Jun-25 16:00N 69°20' E 016°12'5 9.7
2018-Jun-25 15:30N 69°23' E 016°22'510.2
2018-Jun-25 14:59N 69°28' E 016°26'7 9.8
2018-Jun-25 14:13N 69°36' E 016°31'0 0.2
2018-Jun-25 12:38N 69°35' E 016°31'0 1.0
2018-Jun-25 12:24N 69°35' E 016°32'0 0.8
2018-Jun-25 12:00N 69°35' E 016°32'0 0.5
2018-Jun-25 11:30N 69°35' E 016°33'0 0.6
2018-Jun-25 11:00N 69°35' E 016°33'0 0.3
2018-Jun-25 10:30N 69°35' E 016°34'1 1.3
2018-Jun-25 10:00N 69°34' E 016°34'3 5.6
2018-Jun-25 09:30N 69°32' E 016°31'3 5.4
2018-Jun-25 09:00N 69°34' E 016°34'0 0.4
2018-Jun-25 08:30N 69°34' E 016°34'1 2.2
2018-Jun-25 08:00N 69°33' E 016°33'0 0.9
2018-Jun-25 07:30N 69°34' E 016°33'0 0.9
2018-Jun-25 07:00N 69°34' E 016°34'0 0.7
2018-Jun-25 06:29N 69°35' E 016°34'0 0.4
2018-Jun-25 06:01N 69°35' E 016°34'0 0.3
2018-Jun-25 05:30N 69°35' E 016°34'0 0.1
2018-Jun-25 04:59N 69°35' E 016°34'0 0.4
2018-Jun-25 04:30N 69°35' E 016°34'0 0.1
2018-Jun-25 04:00N 69°35' E 016°34'0 0.1
2018-Jun-25 03:30N 69°35' E 016°34'0 0.2
2018-Jun-25 03:00N 69°35' E 016°34'0 0.3
2018-Jun-25 02:30N 69°35' E 016°35'0 0.5
2018-Jun-25 02:00N 69°35' E 016°35'4 7.5
2018-Jun-25 01:30N 69°32' E 016°42'0 0.5
2018-Jun-25 01:00N 69°31' E 016°42'0 1.0
2018-Jun-25 00:30N 69°31' E 016°43'2 3.4
2018-Jun-24 23:59N 69°33' E 016°43'2 4.8
2018-Jun-24 23:29N 69°35' E 016°47'2 4.6
2018-Jun-24 22:58N 69°37' E 016°51'2 4.7
2018-Jun-24 22:30N 69°39' E 016°56'2 4.7
2018-Jun-24 22:00N 69°40' E 016°60'2 4.7
2018-Jun-24 21:30N 69°42' E 017°04'3 5.1
2018-Jun-24 21:00N 69°44' E 017°08'4 7.7
2018-Jun-24 20:30N 69°48' E 017°15'5 9.1
2018-Jun-24 20:00N 69°51' E 017°23'4 8.6
2018-Jun-24 19:30N 69°55' E 017°30'4 8.8
2018-Jun-24 19:00N 69°58' E 017°38'4 8.7
2018-Jun-24 18:30N 70°01' E 017°46'4 8.4
2018-Jun-24 18:00N 70°04' E 017°55'4 8.1
2018-Jun-24 17:30N 70°07' E 018°03'4 7.5
2018-Jun-24 16:59N 70°10' E 018°12'3 7.1
2018-Jun-24 16:30N 70°12' E 018°19'4 7.4
2018-Jun-24 16:00N 70°15' E 018°27'4 7.4
2018-Jun-24 15:30N 70°17' E 018°35'4 7.9
2018-Jun-24 15:00N 70°19' E 018°45'4 8.0
2018-Jun-24 14:29N 70°21' E 018°56'4 7.7
2018-Jun-24 14:00N 70°23' E 019°06'4 7.9
2018-Jun-24 13:30N 70°25' E 019°16'4 7.2
2018-Jun-24 13:00N 70°27' E 019°25'3 6.7
2018-Jun-24 12:30N 70°29' E 019°33'3 6.0
2018-Jun-24 12:00N 70°30' E 019°42'3 6.0
2018-Jun-24 11:30N 70°31' E 019°49'3 5.4
2018-Jun-24 11:00N 70°33' E 019°56'2 4.7
2018-Jun-24 10:30N 70°34' E 020°02'3 5.4
2018-Jun-24 10:00N 70°35' E 020°09'3 5.4
2018-Jun-24 09:29N 70°37' E 020°17'3 5.8
2018-Jun-24 09:00N 70°38' E 020°24'3 5.4
2018-Jun-24 08:30N 70°39' E 020°31'3 6.2
2018-Jun-24 07:59N 70°41' E 020°39'19 7.6
2018-Jun-24 05:31N 70°49' E 021°31'0 8.5
2018-Jun-24 05:30N 70°49' E 021°32'4 8.7
2018-Jun-24 05:00N 70°51' E 021°44'4 8.6
2018-Jun-24 04:30N 70°52' E 021°56'4 8.3
2018-Jun-24 04:00N 70°54' E 022°08'4 8.3
2018-Jun-24 03:30N 70°55' E 022°20'4 8.7
2018-Jun-24 03:00N 70°57' E 022°32'4 8.9
2018-Jun-24 02:30N 70°58' E 022°45'4 9.0
2018-Jun-24 02:00N 70°60' E 022°58'5 9.1
2018-Jun-24 01:30N 71°02' E 023°11'5 9.2
2018-Jun-24 01:00N 71°03' E 023°24'5 9.2
2018-Jun-24 00:29N 71°05' E 023°37'4 9.3
2018-Jun-24 00:00N 71°07' E 023°50'4 8.7
2018-Jun-23 23:30N 71°08' E 024°03'4 8.7
2018-Jun-23 23:00N 71°09' E 024°16'5 9.4
2018-Jun-23 22:30N 71°10' E 024°31'5 9.3
2018-Jun-23 22:00N 71°11' E 024°45'4 8.7
2018-Jun-23 21:30N 71°11' E 024°58'4 8.5
2018-Jun-23 21:00N 71°12' E 025°11'4 8.5
2018-Jun-23 20:30N 71°13' E 025°24'5 8.9
2018-Jun-23 20:00N 71°14' E 025°38'5 9.1
2018-Jun-23 19:30N 71°13' E 025°52'5 9.6
2018-Jun-23 19:00N 71°13' E 026°07'5 9.9
2018-Jun-23 18:30N 71°12' E 026°22'5 9.7
2018-Jun-23 18:00N 71°12' E 026°37'5 9.4
2018-Jun-23 17:30N 71°11' E 026°51'5 9.7
2018-Jun-23 17:00N 71°11' E 027°06'5 9.4
2018-Jun-23 16:29N 71°11' E 027°21'5 9.8
2018-Jun-23 16:00N 71°10' E 027°36'510.1
2018-Jun-23 15:30N 71°10' E 027°52'510.0
2018-Jun-23 15:00N 71°10' E 028°07'5 9.7
2018-Jun-23 14:30N 71°08' E 028°22'510.0
2018-Jun-23 14:00N 71°06' E 028°34'510.2
2018-Jun-23 13:29N 71°03' E 028°48'510.1
2018-Jun-23 12:59N 70°60' E 029°01'510.1
2018-Jun-23 12:30N 70°57' E 029°13'510.3
2018-Jun-23 12:00N 70°54' E 029°26'510.2
2018-Jun-23 11:30N 70°51' E 029°39'5 9.9
2018-Jun-23 10:59N 70°48' E 029°52'5 9.9
2018-Jun-23 10:30N 70°46' E 030°03'5 9.7
2018-Jun-23 10:00N 70°43' E 030°17'5 9.6
2018-Jun-23 09:30N 70°41' E 030°29'5 9.8
2018-Jun-23 09:00N 70°38' E 030°41'5 9.7
2018-Jun-23 08:30N 70°35' E 030°53'5 9.5
2018-Jun-23 08:00N 70°33' E 031°05'5 9.8
2018-Jun-23 07:30N 70°29' E 031°14'510.2
2018-Jun-23 06:59N 70°24' E 031°20'510.5
2018-Jun-23 06:30N 70°19' E 031°25'510.2
2018-Jun-23 06:00N 70°14' E 031°31'510.5
2018-Jun-23 05:30N 70°10' E 031°38'510.5
2018-Jun-23 04:59N 70°06' E 031°49'  
Track history (hours):
 
Tides and Currents Weather Stations Pressure Air Temp Water Temp Dewpoint Dewpoint Depression Visibility Wind Speed Wind Dir Waves Ship Positions

Mekhanik Kraskovsky

Last reported at 2018-Jun-25 19:31 UTC. Time now 2018-Jun-25 19:33 UTC.
Position N 68°60' E 016°47'.

Length 85 m; beam 15 m.

Type: Cargo ship. MMSI: 273116000.

Date/timePositionNaut miles runAvg speedWind from/ knotsBaromVisibWave heightAir tempDewpointWater temp
2018-Jun-25 19:31N 68°60' E 016°47'5 9.4
2018-Jun-25 19:00N 69°04' E 016°44'5 9.4
2018-Jun-25 18:30N 69°09' E 016°42'5 9.5
2018-Jun-25 18:00N 69°14' E 016°40'510.3
2018-Jun-25 17:30N 69°16' E 016°28'510.5
2018-Jun-25 17:00N 69°19' E 016°15'2 4.0
2018-Jun-25 16:30N 69°21' E 016°17'2 4.1
2018-Jun-25 16:00N 69°20' E 016°12'5 9.7
2018-Jun-25 15:30N 69°23' E 016°22'510.2
2018-Jun-25 14:59N 69°28' E 016°26'7 9.8
2018-Jun-25 14:13N 69°36' E 016°31'0 0.2
2018-Jun-25 12:38N 69°35' E 016°31'0 1.0
2018-Jun-25 12:24N 69°35' E 016°32'0 0.8
2018-Jun-25 12:00N 69°35' E 016°32'0 0.5
2018-Jun-25 11:30N 69°35' E 016°33'0 0.6
2018-Jun-25 11:00N 69°35' E 016°33'0 0.3
2018-Jun-25 10:30N 69°35' E 016°34'1 1.3
2018-Jun-25 10:00N 69°34' E 016°34'3 5.6
2018-Jun-25 09:30N 69°32' E 016°31'3 5.4
2018-Jun-25 09:00N 69°34' E 016°34'0 0.4
2018-Jun-25 08:30N 69°34' E 016°34'1 2.2
2018-Jun-25 08:00N 69°33' E 016°33'0 0.9
2018-Jun-25 07:30N 69°34' E 016°33'0 0.9
2018-Jun-25 07:00N 69°34' E 016°34'0 0.7
2018-Jun-25 06:29N 69°35' E 016°34'0 0.4
2018-Jun-25 06:01N 69°35' E 016°34'0 0.3
2018-Jun-25 05:30N 69°35' E 016°34'0 0.1
2018-Jun-25 04:59N 69°35' E 016°34'0 0.4
2018-Jun-25 04:30N 69°35' E 016°34'0 0.1
2018-Jun-25 04:00N 69°35' E 016°34'0 0.1
2018-Jun-25 03:30N 69°35' E 016°34'0 0.2
2018-Jun-25 03:00N 69°35' E 016°34'0 0.3
2018-Jun-25 02:30N 69°35' E 016°35'0 0.5
2018-Jun-25 02:00N 69°35' E 016°35'4 7.5
2018-Jun-25 01:30N 69°32' E 016°42'0 0.5
2018-Jun-25 01:00N 69°31' E 016°42'0 1.0
2018-Jun-25 00:30N 69°31' E 016°43'2 3.4
2018-Jun-24 23:59N 69°33' E 016°43'2 4.8
2018-Jun-24 23:29N 69°35' E 016°47'2 4.6
2018-Jun-24 22:58N 69°37' E 016°51'2 4.7
2018-Jun-24 22:30N 69°39' E 016°56'2 4.7
2018-Jun-24 22:00N 69°40' E 016°60'2 4.7
2018-Jun-24 21:30N 69°42' E 017°04'3 5.1
2018-Jun-24 21:00N 69°44' E 017°08'4 7.7
2018-Jun-24 20:30N 69°48' E 017°15'5 9.1
2018-Jun-24 20:00N 69°51' E 017°23'4 8.6
2018-Jun-24 19:30N 69°55' E 017°30'4 8.8
2018-Jun-24 19:00N 69°58' E 017°38'4 8.7
2018-Jun-24 18:30N 70°01' E 017°46'4 8.4
2018-Jun-24 18:00N 70°04' E 017°55'4 8.1
2018-Jun-24 17:30N 70°07' E 018°03'4 7.5
2018-Jun-24 16:59N 70°10' E 018°12'3 7.1
2018-Jun-24 16:30N 70°12' E 018°19'4 7.4
2018-Jun-24 16:00N 70°15' E 018°27'4 7.4
2018-Jun-24 15:30N 70°17' E 018°35'4 7.9
2018-Jun-24 15:00N 70°19' E 018°45'4 8.0
2018-Jun-24 14:29N 70°21' E 018°56'4 7.7
2018-Jun-24 14:00N 70°23' E 019°06'4 7.9
2018-Jun-24 13:30N 70°25' E 019°16'4 7.2
2018-Jun-24 13:00N 70°27' E 019°25'3 6.7
2018-Jun-24 12:30N 70°29' E 019°33'3 6.0
2018-Jun-24 12:00N 70°30' E 019°42'3 6.0
2018-Jun-24 11:30N 70°31' E 019°49'3 5.4
2018-Jun-24 11:00N 70°33' E 019°56'2 4.7
2018-Jun-24 10:30N 70°34' E 020°02'3 5.4
2018-Jun-24 10:00N 70°35' E 020°09'3 5.4
2018-Jun-24 09:29N 70°37' E 020°17'3 5.8
2018-Jun-24 09:00N 70°38' E 020°24'3 5.4
2018-Jun-24 08:30N 70°39' E 020°31'3 6.2
2018-Jun-24 07:59N 70°41' E 020°39'19 7.6
2018-Jun-24 05:31N 70°49' E 021°31'0 8.5
2018-Jun-24 05:30N 70°49' E 021°32'4 8.7
2018-Jun-24 05:00N 70°51' E 021°44'4 8.6
2018-Jun-24 04:30N 70°52' E 021°56'4 8.3
2018-Jun-24 04:00N 70°54' E 022°08'4 8.3
2018-Jun-24 03:30N 70°55' E 022°20'4 8.7
2018-Jun-24 03:00N 70°57' E 022°32'4 8.9
2018-Jun-24 02:30N 70°58' E 022°45'4 9.0
2018-Jun-24 02:00N 70°60' E 022°58'5 9.1
2018-Jun-24 01:30N 71°02' E 023°11'5 9.2
2018-Jun-24 01:00N 71°03' E 023°24'5 9.2
2018-Jun-24 00:29N 71°05' E 023°37'4 9.3
2018-Jun-24 00:00N 71°07' E 023°50'4 8.7
2018-Jun-23 23:30N 71°08' E 024°03'4 8.7
2018-Jun-23 23:00N 71°09' E 024°16'5 9.4
2018-Jun-23 22:30N 71°10' E 024°31'5 9.3
2018-Jun-23 22:00N 71°11' E 024°45'4 8.7
2018-Jun-23 21:30N 71°11' E 024°58'4 8.5
2018-Jun-23 21:00N 71°12' E 025°11'4 8.5
2018-Jun-23 20:30N 71°13' E 025°24'5 8.9
2018-Jun-23 20:00N 71°14' E 025°38'5 9.1
2018-Jun-23 19:30N 71°13' E 025°52'5 9.6
2018-Jun-23 19:00N 71°13' E 026°07'5 9.9
2018-Jun-23 18:30N 71°12' E 026°22'5 9.7
2018-Jun-23 18:00N 71°12' E 026°37'5 9.4
2018-Jun-23 17:30N 71°11' E 026°51'5 9.7
2018-Jun-23 17:00N 71°11' E 027°06'5 9.4
2018-Jun-23 16:29N 71°11' E 027°21'5 9.8
2018-Jun-23 16:00N 71°10' E 027°36'510.1
2018-Jun-23 15:30N 71°10' E 027°52'510.0
2018-Jun-23 15:00N 71°10' E 028°07'5 9.7
2018-Jun-23 14:30N 71°08' E 028°22'510.0
2018-Jun-23 14:00N 71°06' E 028°34'510.2
2018-Jun-23 13:29N 71°03' E 028°48'510.1
2018-Jun-23 12:59N 70°60' E 029°01'510.1
2018-Jun-23 12:30N 70°57' E 029°13'510.3
2018-Jun-23 12:00N 70°54' E 029°26'510.2
2018-Jun-23 11:30N 70°51' E 029°39'5 9.9
2018-Jun-23 10:59N 70°48' E 029°52'5 9.9
2018-Jun-23 10:30N 70°46' E 030°03'5 9.7
2018-Jun-23 10:00N 70°43' E 030°17'5 9.6
2018-Jun-23 09:30N 70°41' E 030°29'5 9.8
2018-Jun-23 09:00N 70°38' E 030°41'5 9.7
2018-Jun-23 08:30N 70°35' E 030°53'5 9.5
2018-Jun-23 08:00N 70°33' E 031°05'5 9.8
2018-Jun-23 07:30N 70°29' E 031°14'510.2
2018-Jun-23 06:59N 70°24' E 031°20'510.5
2018-Jun-23 06:30N 70°19' E 031°25'510.2
2018-Jun-23 06:00N 70°14' E 031°31'510.5
2018-Jun-23 05:30N 70°10' E 031°38'510.5
2018-Jun-23 04:59N 70°06' E 031°49'  

Dump ship's entire track history